Time;durP1;ratioP1;P1;durP2;ratioP2;P2;SDS_P1;SDS_P2;PMS_P1;PMS_P2;Temp;Humidity;BMP_temperature;BMP_pressure;BME280_temperature;BME280_humidity;BME280_pressure;Samples;Min_cycle;Max_cycle;Signal;HPM_P1;HPM_P2
2023/06/07 00:00:37;;;;;;;25.67;12.97;;;12.00;81.90;;;;;;5012536;28;20178;-87
2023/06/07 00:03:09;;;;;;;19.73;12.00;;;12.00;81.70;;;;;;5013680;28;20197;-87
2023/06/07 00:05:36;;;;;;;24.30;12.70;;;11.90;81.70;;;;;;5012427;28;20173;-87
2023/06/07 00:08:02;;;;;;;21.27;12.47;;;12.00;81.80;;;;;;5014004;28;20177;-87
2023/06/07 00:10:28;;;;;;;20.67;13.33;;;11.90;81.70;;;;;;5012378;28;20272;-87
2023/06/07 00:12:54;;;;;;;23.70;12.80;;;12.00;81.50;;;;;;5013082;28;20308;-87
2023/06/07 00:15:20;;;;;;;23.60;12.97;;;12.00;81.40;;;;;;5012604;28;20287;-87
2023/06/07 00:17:45;;;;;;;19.67;12.80;;;11.90;81.40;;;;;;5011442;28;20185;-87
2023/06/07 00:20:11;;;;;;;21.83;12.57;;;11.90;81.40;;;;;;5011299;28;20215;-87
2023/06/07 00:22:38;;;;;;;22.30;13.20;;;11.90;81.30;;;;;;5012399;28;20225;-86
2023/06/07 00:25:05;;;;;;;24.07;13.83;;;11.90;81.20;;;;;;5011421;28;20180;-87
2023/06/07 00:27:31;;;;;;;19.53;13.43;;;11.90;81.00;;;;;;5011292;28;20181;-87
2023/06/07 00:29:57;;;;;;;23.70;13.43;;;11.80;80.90;;;;;;5012675;28;20173;-87
2023/06/07 00:32:22;;;;;;;22.33;13.50;;;11.80;80.80;;;;;;5012519;28;20204;-87
2023/06/07 00:34:48;;;;;;;17.30;11.67;;;11.70;80.80;;;;;;5011189;28;20170;-87
2023/06/07 00:37:14;;;;;;;21.27;12.80;;;11.70;80.90;;;;;;5012427;28;20256;-87
2023/06/07 00:39:40;;;;;;;24.53;12.83;;;11.70;80.90;;;;;;5011240;28;20227;-87
2023/06/07 00:42:06;;;;;;;22.87;12.73;;;11.70;81.60;;;;;;5011257;28;20197;-87
2023/06/07 00:44:32;;;;;;;27.47;12.90;;;11.70;82.10;;;;;;5011295;28;20265;-87
2023/06/07 00:46:57;;;;;;;24.17;11.87;;;11.70;82.40;;;;;;5011226;28;20204;-87
2023/06/07 00:49:23;;;;;;;21.97;11.07;;;11.80;83.10;;;;;;5011252;28;20181;-87
2023/06/07 00:51:49;;;;;;;26.73;11.47;;;11.80;83.20;;;;;;5012221;28;20618;-87
2023/06/07 00:54:17;;;;;;;19.30;11.00;;;11.80;83.30;;;;;;5010974;28;20272;-87
2023/06/07 00:56:49;;;;;;;23.80;10.43;;;11.80;83.40;;;;;;5010878;28;20202;-87
2023/06/07 00:59:16;;;;;;;27.33;10.43;;;11.80;83.50;;;;;;5010874;28;20166;-87
2023/06/07 01:01:44;;;;;;;23.03;11.17;;;11.80;83.50;;;;;;5010841;28;20177;-87
2023/06/07 01:04:10;;;;;;;29.40;10.03;;;11.70;83.50;;;;;;5012166;28;20169;-87
2023/06/07 01:06:37;;;;;;;24.77;10.30;;;11.70;83.60;;;;;;5014352;28;20177;-87
2023/06/07 01:09:05;;;;;;;20.77;9.80;;;11.80;83.60;;;;;;5014352;28;20184;-87
2023/06/07 01:11:32;;;;;;;27.53;10.63;;;11.70;83.60;;;;;;5015541;28;20193;-87
2023/06/07 01:13:57;;;;;;;14.80;9.60;;;11.70;83.70;;;;;;4978763;28;1059722;-87
2023/06/07 01:16:23;;;;;;;17.93;9.53;;;11.70;83.60;;;;;;5016540;28;20232;-87
2023/06/07 01:18:49;;;;;;;22.53;10.00;;;11.70;83.60;;;;;;5015373;28;20177;-87
2023/06/07 01:21:19;;;;;;;24.37;11.27;;;11.60;83.50;;;;;;5015178;28;20177;-87
2023/06/07 01:23:44;;;;;;;30.60;14.20;;;11.70;83.50;;;;;;5015298;28;20229;-87
2023/06/07 01:26:11;;;;;;;25.67;10.23;;;11.70;83.80;;;;;;5016335;28;20192;-87
2023/06/07 01:28:41;;;;;;;22.40;11.03;;;11.70;83.50;;;;;;5015196;28;20184;-87
2023/06/07 01:31:09;;;;;;;21.43;11.40;;;11.60;83.60;;;;;;5015886;28;20544;-87
2023/06/07 01:33:35;;;;;;;26.80;9.40;;;11.50;83.60;;;;;;5015242;28;20201;-87
2023/06/07 01:36:03;;;;;;;25.73;10.03;;;11.50;83.80;;;;;;5014891;28;20209;-87
2023/06/07 01:38:31;;;;;;;18.10;10.40;;;11.50;83.90;;;;;;5016184;28;20197;-87
2023/06/07 01:40:57;;;;;;;31.20;11.00;;;11.50;84.00;;;;;;5014967;28;20268;-87
2023/06/07 01:43:23;;;;;;;20.60;10.00;;;11.50;84.00;;;;;;5014806;28;20201;-87
2023/06/07 01:45:51;;;;;;;16.47;9.10;;;11.50;84.00;;;;;;5016079;28;20177;-87
2023/06/07 01:48:18;;;;;;;27.10;10.67;;;11.40;84.00;;;;;;5014723;28;20184;-87
2023/06/07 01:50:43;;;;;;;23.83;10.17;;;11.40;84.20;;;;;;5014616;28;20178;-87
2023/06/07 01:53:09;;;;;;;24.83;10.07;;;11.40;84.40;;;;;;5014632;28;20309;-87
2023/06/07 01:55:36;;;;;;;21.83;11.20;;;11.30;84.50;;;;;;5015146;28;20205;-86
2023/06/07 01:58:20;;;;;;;20.07;10.00;;;11.30;84.60;;;;;;5015888;28;20180;-87
2023/06/07 02:00:52;;;;;;;20.50;10.53;;;11.10;84.70;;;;;;5014743;28;20260;-87
2023/06/07 02:03:35;;;;;;;28.87;10.70;;;11.00;84.60;;;;;;5014508;28;20204;-87
2023/06/07 02:06:03;;;;;;;22.07;10.93;;;10.80;84.70;;;;;;5015677;28;20168;-87
2023/06/07 02:08:29;;;;;;;20.07;11.00;;;10.80;84.80;;;;;;5018245;28;20527;-86
2023/06/07 02:10:56;;;;;;;20.97;11.03;;;10.80;84.90;;;;;;5015905;28;20220;-87
2023/06/07 02:13:22;;;;;;;25.83;10.13;;;10.70;85.00;;;;;;5014208;28;20217;-87
2023/06/07 02:15:48;;;;;;;24.30;9.67;;;10.80;84.90;;;;;;5014342;28;20205;-87
2023/06/07 02:18:19;;;;;;;28.70;9.97;;;10.70;84.80;;;;;;5013422;28;20173;-87
2023/06/07 02:20:44;;;;;;;16.90;9.73;;;10.60;84.80;;;;;;5014260;28;20636;-87
2023/06/07 02:23:10;;;;;;;18.97;9.63;;;10.60;84.70;;;;;;5014084;28;20230;-86
2023/06/07 02:25:35;;;;;;;17.90;9.27;;;10.60;84.60;;;;;;5014024;28;20607;-87
2023/06/07 02:28:02;;;;;;;21.30;9.67;;;10.60;84.60;;;;;;5014095;28;20177;-87
2023/06/07 02:30:28;;;;;;;18.77;10.93;;;10.60;84.40;;;;;;5013980;28;20173;-87
2023/06/07 02:32:53;;;;;;;17.23;10.03;;;10.60;84.30;;;;;;5014529;28;20216;-87
2023/06/07 02:35:22;;;;;;;17.37;10.50;;;10.50;84.20;;;;;;5013913;28;20201;-87
2023/06/07 02:37:47;;;;;;;22.93;11.10;;;10.50;84.20;;;;;;5015177;28;20213;-87
2023/06/07 02:40:14;;;;;;;25.27;10.57;;;10.50;84.30;;;;;;5013721;28;20197;-86
2023/06/07 02:42:44;;;;;;;21.30;10.77;;;10.50;84.10;;;;;;5013632;28;20667;-87
2023/06/07 02:45:11;;;;;;;17.43;9.87;;;10.40;84.10;;;;;;5013794;28;20185;-87
2023/06/07 02:47:37;;;;;;;20.57;10.17;;;10.40;84.10;;;;;;5013731;28;20268;-87
2023/06/07 02:50:03;;;;;;;18.50;9.93;;;10.30;84.10;;;;;;5013683;28;20272;-87
2023/06/07 02:52:29;;;;;;;25.30;9.50;;;10.30;84.00;;;;;;5013612;28;20727;-87
2023/06/07 02:54:55;;;;;;;16.67;9.93;;;10.30;84.10;;;;;;5013463;28;20273;-87
2023/06/07 02:57:20;;;;;;;19.93;11.30;;;10.30;83.80;;;;;;5013523;28;20177;-87
2023/06/07 02:59:48;;;;;;;19.70;10.57;;;10.30;83.50;;;;;;5014635;28;20166;-87
2023/06/07 03:02:13;;;;;;;20.13;10.73;;;10.20;83.40;;;;;;5013262;28;20199;-87
2023/06/07 03:04:40;;;;;;;20.23;11.03;;;10.20;83.10;;;;;;5013417;28;20260;-87
2023/06/07 03:07:06;;;;;;;17.40;10.70;;;10.20;83.00;;;;;;5014731;28;20655;-87
2023/06/07 03:09:31;;;;;;;23.03;10.80;;;10.20;83.00;;;;;;5013162;28;20187;-87
2023/06/07 03:11:57;;;;;;;17.40;11.43;;;10.20;82.70;;;;;;5013163;28;20205;-87
2023/06/07 03:14:23;;;;;;;23.53;10.77;;;10.20;82.60;;;;;;5014489;28;20181;-87
2023/06/07 03:16:49;;;;;;;16.03;9.97;;;10.10;82.60;;;;;;5013015;28;20209;-87
2023/06/07 03:19:15;;;;;;;23.57;11.07;;;10.10;83.00;;;;;;5014379;28;20170;-87
2023/06/07 03:21:44;;;;;;;30.53;11.03;;;10.10;83.60;;;;;;5013159;28;20180;-87
2023/06/07 03:24:13;;;;;;;26.33;11.23;;;10.20;84.50;;;;;;5013074;28;20304;-87
2023/06/07 03:26:39;;;;;;;30.13;11.87;;;10.40;85.50;;;;;;5013758;28;20181;-87
2023/06/07 03:29:04;;;;;;;30.30;13.50;;;10.50;85.80;;;;;;5013970;28;20173;-87
2023/06/07 03:31:31;;;;;;;44.30;14.73;;;10.70;86.60;;;;;;5012598;28;20186;-87
2023/06/07 03:33:57;;;;;;;30.30;15.73;;;10.70;87.10;;;;;;5014156;28;20184;-87
2023/06/07 03:36:25;;;;;;;35.27;14.70;;;10.80;87.70;;;;;;5012752;28;20205;-87
2023/06/07 03:38:52;;;;;;;31.57;14.00;;;10.80;87.80;;;;;;5013993;28;20169;-87
2023/06/07 03:41:18;;;;;;;36.53;15.87;;;10.80;88.10;;;;;;5012777;28;20185;-86
2023/06/07 03:43:43;;;;;;;41.40;14.37;;;10.80;88.30;;;;;;5012657;28;20251;-87
2023/06/07 03:46:09;;;;;;;39.63;13.33;;;10.90;88.50;;;;;;5012651;28;20294;-87
2023/06/07 03:48:36;;;;;;;31.53;13.30;;;10.90;88.70;;;;;;5013854;28;20190;-87
2023/06/07 03:51:02;;;;;;;39.73;12.33;;;10.80;88.60;;;;;;5012626;28;20173;-87
2023/06/07 03:53:27;;;;;;;32.93;13.30;;;10.80;88.70;;;;;;5012631;28;20698;-87
2023/06/07 03:55:53;;;;;;;25.47;11.67;;;10.90;88.90;;;;;;5013873;28;20204;-87
2023/06/07 03:58:19;;;;;;;37.63;12.50;;;11.00;89.10;;;;;;5012708;28;20224;-87
2023/06/07 04:00:47;;;;;;;32.67;12.30;;;11.00;89.10;;;;;;5012676;28;20173;-87
2023/06/07 04:03:13;;;;;;;37.03;12.33;;;11.00;89.20;;;;;;5013768;28;20201;-87
2023/06/07 04:05:38;;;;;;;30.80;12.73;;;11.00;89.30;;;;;;5012443;28;20177;-87
2023/06/07 04:08:05;;;;;;;32.90;12.80;;;11.00;89.30;;;;;;5013642;28;20173;-87
2023/06/07 04:10:31;;;;;;;29.70;12.60;;;11.10;89.40;;;;;;5013742;28;20169;-87
2023/06/07 04:12:56;;;;;;;42.30;13.67;;;11.10;89.30;;;;;;5012373;28;20255;-87
2023/06/07 04:15:22;;;;;;;34.30;14.63;;;11.20;89.40;;;;;;5012432;28;20773;-87
2023/06/07 04:17:47;;;;;;;29.13;13.17;;;11.20;89.50;;;;;;5013657;28;20252;-87
2023/06/07 04:20:14;;;;;;;34.03;13.43;;;11.20;89.50;;;;;;5012429;28;20173;-87
2023/06/07 04:22:41;;;;;;;35.60;14.40;;;11.20;89.50;;;;;;5012345;28;20223;-87
2023/06/07 04:25:07;;;;;;;37.53;15.07;;;11.20;89.50;;;;;;5013471;28;20223;-87
2023/06/07 04:27:34;;;;;;;31.43;14.13;;;11.30;89.60;;;;;;5013715;28;20189;-87
2023/06/07 04:30:01;;;;;;;41.50;15.50;;;11.30;89.60;;;;;;5012343;28;20204;-87
2023/06/07 04:32:28;;;;;;;32.63;12.80;;;11.30;89.50;;;;;;5013518;28;20181;-87
2023/06/07 04:34:54;;;;;;;33.73;13.90;;;11.30;89.50;;;;;;5012306;28;20180;-87
2023/06/07 04:37:20;;;;;;;31.57;12.70;;;11.30;89.50;;;;;;5013457;28;20173;-87
2023/06/07 04:39:49;;;;;;;30.20;14.20;;;11.30;89.60;;;;;;5013659;28;20177;-87
2023/06/07 04:42:16;;;;;;;26.67;13.10;;;11.40;89.50;;;;;;5017131;28;20196;-87
2023/06/07 04:44:42;;;;;;;35.97;13.43;;;11.30;89.50;;;;;;5016279;28;20169;-87
2023/06/07 04:47:09;;;;;;;35.50;14.27;;;11.30;89.50;;;;;;5017664;28;20559;-87
2023/06/07 04:49:35;;;;;;;29.00;13.80;;;11.40;89.50;;;;;;5016083;28;20227;-87
2023/06/07 04:52:05;;;;;;;34.00;15.00;;;11.30;89.50;;;;;;5016122;28;20248;-87
2023/06/07 04:54:31;;;;;;;29.30;15.57;;;11.40;89.60;;;;;;5016881;28;20590;-87
2023/06/07 04:56:56;;;;;;;38.30;16.37;;;11.40;89.60;;;;;;5016144;28;20197;-87
2023/06/07 04:59:24;;;;;;;35.87;17.43;;;11.40;89.70;;;;;;5016262;28;20182;-87
2023/06/07 05:01:50;;;;;;;42.67;17.77;;;11.50;89.80;;;;;;5015991;28;20194;-87
2023/06/07 05:04:19;;;;;;;41.03;15.73;;;11.50;89.70;;;;;;5015915;28;20177;-87
2023/06/07 05:06:45;;;;;;;38.73;17.43;;;11.50;89.70;;;;;;5015732;28;20177;-87
2023/06/07 05:09:11;;;;;;;36.90;16.03;;;11.60;89.60;;;;;;5016103;28;20539;-87
2023/06/07 05:11:37;;;;;;;35.97;15.87;;;11.70;89.60;;;;;;5016298;28;20521;-88
2023/06/07 05:14:02;;;;;;;38.17;17.63;;;11.70;89.40;;;;;;5016012;28;20204;-87
2023/06/07 05:16:32;;;;;;;37.23;17.70;;;11.80;89.20;;;;;;5016772;28;20677;-87
2023/06/07 05:18:57;;;;;;;34.70;15.63;;;11.80;88.80;;;;;;5017196;28;20196;-87
2023/06/07 05:21:23;;;;;;;33.77;15.50;;;11.90;88.70;;;;;;5015940;28;20586;-88
2023/06/07 05:23:49;;;;;;;33.13;16.20;;;12.00;88.50;;;;;;5015923;28;20173;-87
2023/06/07 05:26:15;;;;;;;40.70;17.33;;;12.00;88.50;;;;;;5017099;28;20170;-87
2023/06/07 05:28:40;;;;;;;28.27;15.53;;;12.00;88.10;;;;;;5015748;28;20173;-86
2023/06/07 05:31:06;;;;;;;32.03;16.33;;;12.00;87.80;;;;;;5015658;28;20644;-87
2023/06/07 05:33:31;;;;;;;41.87;18.83;;;12.00;87.70;;;;;;5016664;28;20232;-87
2023/06/07 05:35:57;;;;;;;32.33;17.80;;;12.00;87.80;;;;;;5016650;28;20197;-87
2023/06/07 05:38:23;;;;;;;32.17;15.40;;;12.10;87.70;;;;;;5015287;28;20639;-87
2023/06/07 05:40:49;;;;;;;27.73;15.10;;;12.00;87.30;;;;;;5015922;28;20670;-87
2023/06/07 05:43:14;;;;;;;32.23;15.37;;;12.00;87.30;;;;;;5015995;28;20679;-87
2023/06/07 05:45:41;;;;;;;29.67;15.10;;;12.10;87.10;;;;;;5014626;28;20181;-87
2023/06/07 05:48:07;;;;;;;24.77;13.77;;;12.10;86.80;;;;;;5014624;28;20177;-88
2023/06/07 05:50:32;;;;;;;26.97;14.13;;;12.20;86.70;;;;;;5014852;28;20706;-87
2023/06/07 05:52:59;;;;;;;29.77;13.27;;;12.20;86.70;;;;;;5015450;28;20220;-87
2023/06/07 05:55:25;;;;;;;28.90;13.63;;;12.30;86.70;;;;;;5015617;28;20243;-87
2023/06/07 05:57:51;;;;;;;25.83;12.10;;;12.30;86.60;;;;;;5014436;28;20181;-87
2023/06/07 06:00:17;;;;;;;29.47;11.23;;;12.40;86.40;;;;;;5014418;28;20599;-87
2023/06/07 06:02:45;;;;;;;23.30;11.50;;;12.50;86.10;;;;;;5015479;28;20260;-87
2023/06/07 06:05:11;;;;;;;20.43;12.50;;;12.50;85.60;;;;;;5015749;28;20170;-87
2023/06/07 06:07:37;;;;;;;25.13;11.73;;;12.50;85.50;;;;;;5014341;28;20265;-86
2023/06/07 06:10:04;;;;;;;25.40;11.50;;;12.60;85.40;;;;;;5015507;28;20169;-87
2023/06/07 06:12:30;;;;;;;27.87;12.63;;;12.70;85.30;;;;;;5015737;28;20197;-87
2023/06/07 06:14:56;;;;;;;19.93;11.67;;;12.80;85.20;;;;;;5014201;28;20608;-87
2023/06/07 06:17:22;;;;;;;30.33;14.43;;;12.70;84.60;;;;;;5015775;28;20219;-87
2023/06/07 06:19:47;;;;;;;22.90;13.20;;;12.60;84.20;;;;;;5015252;28;20169;-87
2023/06/07 06:22:13;;;;;;;22.87;12.77;;;12.60;84.50;;;;;;5013936;28;20606;-87
2023/06/07 06:24:38;;;;;;;25.83;11.67;;;12.80;84.80;;;;;;5013962;28;20184;-87
2023/06/07 06:27:06;;;;;;;26.73;10.80;;;12.80;84.70;;;;;;5015098;28;20174;-87
2023/06/07 06:29:31;;;;;;;37.20;11.37;;;13.00;84.70;;;;;;5013764;28;20177;-87
2023/06/07 06:31:57;;;;;;;19.80;9.50;;;13.00;84.50;;;;;;5013737;28;20616;-87
2023/06/07 06:34:23;;;;;;;22.67;10.23;;;12.80;83.90;;;;;;5014969;28;20181;-87
2023/06/07 06:36:49;;;;;;;21.77;10.53;;;13.00;84.40;;;;;;5013635;28;20193;-87
2023/06/07 06:39:15;;;;;;;20.90;11.83;;;13.20;84.00;;;;;;5014899;28;20176;-87
2023/06/07 06:41:40;;;;;;;25.67;12.93;;;13.30;83.80;;;;;;5013668;28;20224;-87
2023/06/07 06:44:06;;;;;;;23.10;11.20;;;13.50;83.10;;;;;;5013545;28;20177;-87
2023/06/07 06:46:31;;;;;;;16.80;11.30;;;13.60;82.50;;;;;;5013534;28;20184;-87
2023/06/07 06:48:57;;;;;;;18.90;11.17;;;13.80;82.30;;;;;;5013360;28;20169;-87
2023/06/07 06:51:22;;;;;;;20.73;11.10;;;13.90;81.90;;;;;;5014899;28;20181;-87
2023/06/07 06:53:48;;;;;;;25.10;11.30;;;13.90;81.10;;;;;;5013430;28;20177;-87
2023/06/07 06:56:13;;;;;;;21.10;11.07;;;14.00;81.50;;;;;;5013238;28;20213;-87
2023/06/07 06:58:40;;;;;;;25.53;10.50;;;14.00;81.20;;;;;;5014504;28;20170;-87
2023/06/07 07:01:07;;;;;;;19.57;10.40;;;14.10;81.20;;;;;;5014769;28;20215;-88
2023/06/07 07:03:32;;;;;;;21.60;9.47;;;14.20;80.40;;;;;;5012507;28;20204;-87
2023/06/07 07:05:58;;;;;;;21.27;9.80;;;14.20;80.00;;;;;;5013127;28;20177;-87
2023/06/07 07:08:24;;;;;;;22.23;10.50;;;14.30;80.00;;;;;;5013108;28;20251;-88
2023/06/07 07:10:50;;;;;;;16.60;10.07;;;14.50;79.50;;;;;;5014633;28;20184;-87
2023/06/07 07:13:16;;;;;;;17.93;10.03;;;14.50;79.70;;;;;;5012867;28;20212;-87
2023/06/07 07:15:41;;;;;;;24.20;9.83;;;14.20;80.30;;;;;;5014100;28;20711;-87
2023/06/07 07:18:08;;;;;;;19.00;9.63;;;14.20;80.90;;;;;;5013055;28;20216;-87
2023/06/07 07:20:33;;;;;;;20.57;9.97;;;14.50;80.70;;;;;;5014225;28;20256;-87
2023/06/07 07:23:01;;;;;;;21.83;10.00;;;14.80;79.80;;;;;;5014054;28;20209;-87
2023/06/07 07:25:27;;;;;;;18.97;9.17;;;14.80;78.70;;;;;;5014087;28;20176;-87
2023/06/07 07:27:53;;;;;;;15.63;9.40;;;14.80;78.60;;;;;;5012791;28;20173;-88
2023/06/07 07:30:19;;;;;;;19.80;9.53;;;14.90;78.60;;;;;;5012746;28;20177;-87
2023/06/07 07:32:44;;;;;;;19.10;9.93;;;15.00;79.00;;;;;;5013820;28;20189;-87
2023/06/07 07:35:10;;;;;;;21.70;9.63;;;15.20;78.20;;;;;;5012679;28;20263;-88
2023/06/07 07:37:38;;;;;;;18.88;9.10;;;15.20;77.80;;;;;;5012627;28;20169;-88
2023/06/07 07:40:08;;;;;;;19.83;10.17;;;15.20;78.30;;;;;;5013750;28;20193;-88
2023/06/07 07:42:34;;;;;;;23.55;11.30;;;15.30;78.60;;;;;;5013730;28;20181;-87
2023/06/07 07:45:00;;;;;;;17.08;8.90;;;15.50;78.20;;;;;;5012465;28;20259;-87
2023/06/07 07:47:25;;;;;;;22.97;10.63;;;15.50;78.50;;;;;;5013723;28;20585;-88
2023/06/07 07:49:51;;;;;;;17.08;8.77;;;15.70;79.00;;;;;;5013621;28;20169;-88
2023/06/07 07:52:17;;;;;;;22.20;8.90;;;15.70;78.70;;;;;;5012379;28;20198;-88
2023/06/07 07:54:43;;;;;;;17.45;9.23;;;15.80;77.90;;;;;;5012486;28;20181;-88
2023/06/07 07:57:10;;;;;;;19.60;9.65;;;15.90;76.50;;;;;;5013417;28;20251;-88
2023/06/07 07:59:35;;;;;;;19.10;10.43;;;15.80;77.50;;;;;;5012448;28;20180;-88
2023/06/07 08:02:01;;;;;;;18.10;10.73;;;16.00;76.60;;;;;;5012246;28;20193;-87
2023/06/07 08:04:27;;;;;;;22.83;17.40;;;16.00;75.70;;;;;;5012393;28;20181;-88
2023/06/07 08:06:52;;;;;;;26.10;17.95;;;16.00;75.10;;;;;;5013454;28;20177;-87
2023/06/07 08:09:17;;;;;;;24.25;19.85;;;16.10;76.10;;;;;;5013435;28;20216;-88
2023/06/07 08:11:43;;;;;;;23.25;20.73;;;16.20;76.00;;;;;;5013452;28;20284;-87
2023/06/07 08:14:08;;;;;;;24.85;20.08;;;16.40;75.50;;;;;;5012040;28;20567;-87
2023/06/07 08:16:34;;;;;;;24.55;21.48;;;16.50;75.20;;;;;;5011140;28;20549;-87
2023/06/07 08:19:00;;;;;;;23.33;20.27;;;16.50;74.30;;;;;;5013329;28;20173;-88
2023/06/07 08:21:25;;;;;;;25.58;20.00;;;16.50;74.90;;;;;;5012093;28;20166;-88
2023/06/07 08:23:55;;;;;;;31.50;21.02;;;16.80;73.90;;;;;;5013628;28;20232;-88
2023/06/07 08:26:21;;;;;;;21.70;19.55;;;17.00;73.40;;;;;;5012123;28;20264;-88
2023/06/07 08:28:46;;;;;;;21.35;14.13;;;17.00;72.00;;;;;;5012028;28;20272;-88
2023/06/07 08:31:12;;;;;;;13.10;8.95;;;17.00;72.80;;;;;;5013319;28;20180;-88
2023/06/07 08:33:37;;;;;;;17.10;9.85;;;17.10;73.60;;;;;;5013365;28;20189;-88
2023/06/07 08:36:03;;;;;;;13.98;9.45;;;17.30;72.00;;;;;;5011863;28;20207;-88
2023/06/07 08:38:29;;;;;;;17.88;10.20;;;17.50;72.30;;;;;;5013192;28;20169;-88
2023/06/07 08:40:56;;;;;;;21.80;10.38;;;17.70;71.50;;;;;;5011917;28;20188;-88
2023/06/07 08:43:23;;;;;;;21.67;11.93;;;17.80;72.30;;;;;;5013151;28;20679;-88
2023/06/07 08:45:50;;;;;;;17.40;10.90;;;17.90;70.50;;;;;;5011924;28;20200;-88
2023/06/07 08:48:16;;;;;;;16.95;11.50;;;18.10;70.00;;;;;;5011882;28;20181;-88
2023/06/07 08:50:45;;;;;;;17.67;11.63;;;18.20;69.00;;;;;;5013035;28;20244;-87
2023/06/07 08:53:17;;;;;;;14.68;11.27;;;18.30;69.10;;;;;;5012922;28;20193;-88
2023/06/07 08:55:43;;;;;;;17.95;11.15;;;18.40;68.20;;;;;;5011720;28;20209;-88
2023/06/07 08:58:10;;;;;;;21.70;10.98;;;18.50;69.00;;;;;;5013008;28;20185;-88
2023/06/07 09:00:36;;;;;;;16.95;11.23;;;18.70;68.30;;;;;;5011972;28;20174;-88
2023/06/07 09:03:02;;;;;;;19.13;12.15;;;18.70;68.10;;;;;;5011735;28;20566;-88
2023/06/07 09:05:27;;;;;;;19.58;12.73;;;18.50;69.00;;;;;;5012950;28;20178;-88
2023/06/07 09:07:53;;;;;;;25.08;12.00;;;18.90;68.10;;;;;;5012985;28;20505;-88
2023/06/07 09:10:18;;;;;;;19.15;11.90;;;18.70;68.80;;;;;;5012873;28;20181;-88
2023/06/07 09:12:47;;;;;;;19.70;13.68;;;19.00;67.60;;;;;;5012867;28;20220;-88
2023/06/07 09:15:18;;;;;;;15.80;13.10;;;19.20;67.00;;;;;;5012731;28;20260;-88
2023/06/07 09:17:54;;;;;;;19.23;13.40;;;19.50;65.30;;;;;;5011662;28;20205;-87
2023/06/07 09:20:23;;;;;;;15.25;13.57;;;19.50;66.60;;;;;;5013161;28;20204;-88
2023/06/07 09:23:13;;;;;;;18.90;15.00;;;19.60;65.30;;;;;;5012244;28;20284;-87
2023/06/07 09:25:39;;;;;;;19.40;15.20;;;19.80;62.70;;;;;;5011610;28;20173;-87
2023/06/07 09:28:12;;;;;;;26.20;15.45;;;19.50;64.50;;;;;;5014515;28;20200;-88
2023/06/07 09:30:56;;;;;;;22.92;15.00;;;19.60;65.40;;;;;;5016235;28;20158;-88
2023/06/07 09:33:29;;;;;;;20.58;14.75;;;19.80;65.30;;;;;;5014889;28;20205;-88
2023/06/07 09:36:10;;;;;;;26.02;16.55;;;19.90;64.50;;;;;;5014835;28;20197;-88
2023/06/07 09:38:37;;;;;;;18.40;14.80;;;19.90;63.40;;;;;;5016396;28;20157;-88
2023/06/07 09:41:05;;;;;;;21.58;15.23;;;20.10;64.10;;;;;;5016024;28;20166;-88
2023/06/07 09:43:43;;;;;;;20.48;13.93;;;20.40;62.20;;;;;;5015956;28;20565;-88
2023/06/07 09:46:09;;;;;;;15.85;14.32;;;20.70;61.00;;;;;;5014790;28;20264;-88
2023/06/07 09:48:49;;;;;;;21.00;14.90;;;20.90;61.00;;;;;;5015869;28;20256;-88
2023/06/07 09:51:15;;;;;;;18.23;14.60;;;20.90;61.50;;;;;;5014568;28;20218;-88
2023/06/07 09:53:57;;;;;;;18.00;14.65;;;20.90;60.40;;;;;;5014455;28;20204;-88
2023/06/07 09:56:24;;;;;;;16.20;14.48;;;20.90;60.90;;;;;;5014436;28;20197;-88
2023/06/07 09:59:08;;;;;;;22.20;14.60;;;21.10;59.40;;;;;;5014691;28;20177;-88
2023/06/07 10:01:35;;;;;;;16.80;14.73;;;21.10;58.70;;;;;;5015549;28;20168;-88
2023/06/07 10:04:02;;;;;;;18.48;14.18;;;21.30;58.70;;;;;;5015621;28;20180;-88
2023/06/07 10:06:32;;;;;;;16.95;13.73;;;21.40;57.70;;;;;;5015526;28;20169;-88
2023/06/07 10:09:01;;;;;;;17.73;14.07;;;21.60;55.80;;;;;;5015833;28;20154;-88
2023/06/07 10:11:28;;;;;;;20.45;14.57;;;21.40;56.90;;;;;;5014161;28;20177;-88
2023/06/07 10:13:56;;;;;;;15.82;13.82;;;21.40;57.00;;;;;;5014235;28;20686;-88
2023/06/07 10:16:22;;;;;;;21.05;15.30;;;21.70;56.70;;;;;;5015433;28;20205;-88
2023/06/07 10:18:52;;;;;;;20.85;15.25;;;21.40;58.90;;;;;;5014088;28;20170;-88
2023/06/07 10:21:20;;;;;;;18.40;14.57;;;21.60;57.90;;;;;;5014173;28;20176;-88
2023/06/07 10:23:59;;;;;;;15.77;14.07;;;21.60;58.10;;;;;;5015142;28;20216;-88
2023/06/07 10:26:37;;;;;;;15.52;13.93;;;22.00;56.90;;;;;;5015194;28;20245;-88
2023/06/07 10:29:08;;;;;;;18.20;13.80;;;22.00;55.60;;;;;;5013955;28;20211;-88
2023/06/07 10:31:40;;;;;;;16.17;14.52;;;22.30;54.40;;;;;;5013792;28;20185;-88
2023/06/07 10:34:08;;;;;;;16.17;14.45;;;22.30;55.10;;;;;;5013866;28;20177;-88
2023/06/07 10:36:43;;;;;;;20.15;13.93;;;22.20;54.50;;;;;;5013807;28;20205;-88
2023/06/07 10:39:11;;;;;;;19.85;14.35;;;22.20;55.30;;;;;;5013436;28;20227;-88
2023/06/07 10:41:37;;;;;;;19.02;14.52;;;21.90;55.90;;;;;;5014796;28;20220;-88
2023/06/07 10:44:03;;;;;;;20.98;14.38;;;21.90;56.80;;;;;;5014853;28;20169;-88
2023/06/07 10:46:29;;;;;;;18.17;14.73;;;22.10;55.90;;;;;;5013572;28;20177;-88
2023/06/07 10:48:59;;;;;;;21.55;14.90;;;22.40;52.20;;;;;;5013521;28;20177;-88
2023/06/07 10:51:51;;;;;;;16.98;15.10;;;22.30;53.10;;;;;;5013419;28;20651;-87
2023/06/07 10:54:30;;;;;;;17.65;14.45;;;22.70;52.90;;;;;;5013413;28;20178;-88
2023/06/07 10:56:56;;;;;;;19.73;14.50;;;22.70;54.40;;;;;;5013609;28;20205;-88
2023/06/07 10:59:23;;;;;;;16.05;14.50;;;22.70;55.30;;;;;;5013283;28;20268;-88
2023/06/07 11:01:50;;;;;;;16.00;14.30;;;22.80;53.10;;;;;;5013238;28;20197;-89
2023/06/07 11:04:33;;;;;;;18.92;14.77;;;22.70;54.90;;;;;;5014717;28;20569;-88
2023/06/07 11:07:18;;;;;;;19.23;14.98;;;22.90;52.00;;;;;;5014365;28;20550;-88
2023/06/07 11:09:44;;;;;;;17.25;15.45;;;22.80;51.60;;;;;;5013129;28;20252;-88
2023/06/07 11:12:40;;;;;;;16.83;15.20;;;22.80;51.80;;;;;;5012936;28;20240;-88
2023/06/07 11:15:24;;;;;;;19.30;15.10;;;23.10;51.50;;;;;;5014398;28;20644;-88
2023/06/07 11:17:55;;;;;;;19.60;15.40;;;23.30;51.90;;;;;;5013031;28;20193;-87
2023/06/07 11:20:36;;;;;;;18.13;15.07;;;23.10;53.50;;;;;;5013524;28;20173;-88
2023/06/07 11:23:30;;;;;;;18.20;15.40;;;23.20;53.10;;;;;;5014056;28;20189;-88
2023/06/07 11:26:06;;;;;;;23.33;16.98;;;23.20;53.10;;;;;;5014081;28;20197;-88
2023/06/07 11:28:32;;;;;;;18.10;15.18;;;22.70;54.40;;;;;;5012832;28;20207;-88
2023/06/07 11:30:59;;;;;;;17.02;15.25;;;23.10;52.10;;;;;;5013556;28;20264;-88
2023/06/07 11:33:25;;;;;;;18.60;15.38;;;23.20;52.10;;;;;;5013995;28;20197;-88
2023/06/07 11:35:52;;;;;;;17.98;15.50;;;22.80;52.90;;;;;;5013909;28;20209;-88
2023/06/07 11:38:19;;;;;;;15.80;14.40;;;22.70;53.00;;;;;;5013171;28;20177;-88
2023/06/07 11:40:45;;;;;;;17.95;14.98;;;23.20;52.20;;;;;;5014133;28;20170;-88
2023/06/07 11:43:12;;;;;;;16.52;14.80;;;23.40;50.80;;;;;;5012499;28;20201;-88
2023/06/07 11:45:44;;;;;;;16.30;14.70;;;23.50;51.80;;;;;;5013806;28;20243;-88
2023/06/07 11:48:10;;;;;;;18.13;16.00;;;22.60;52.20;;;;;;5013115;28;20550;-87
2023/06/07 11:50:40;;;;;;;17.27;15.40;;;22.80;52.70;;;;;;5013460;28;20169;-88
2023/06/07 11:53:10;;;;;;;17.00;15.43;;;23.00;53.40;;;;;;5012466;28;20201;-88
2023/06/07 11:55:37;;;;;;;18.70;15.57;;;23.50;52.40;;;;;;5013190;28;20201;-88
2023/06/07 11:58:04;;;;;;;17.63;15.30;;;23.80;50.40;;;;;;5013660;28;20170;-88
2023/06/07 12:00:31;;;;;;;19.45;15.48;;;23.70;51.10;;;;;;5013534;28;20544;-88
2023/06/07 12:03:01;;;;;;;21.05;15.50;;;23.80;52.80;;;;;;5013386;28;20264;-88
2023/06/07 12:05:30;;;;;;;17.02;15.10;;;23.80;49.90;;;;;;5012220;28;20197;-88
2023/06/07 12:08:07;;;;;;;17.92;15.85;;;22.60;53.70;;;;;;5012240;28;20235;-88
2023/06/07 12:10:36;;;;;;;16.98;15.05;;;23.40;52.00;;;;;;5013528;28;20160;-88
2023/06/07 12:13:21;;;;;;;20.60;15.50;;;23.40;52.50;;;;;;5012314;28;20296;-88
2023/06/07 12:15:54;;;;;;;17.55;15.10;;;23.50;52.90;;;;;;5013327;28;20200;-88
2023/06/07 12:18:27;;;;;;;19.38;15.50;;;23.50;52.50;;;;;;5013402;28;20158;-88
2023/06/07 12:21:04;;;;;;;17.45;15.43;;;23.80;51.80;;;;;;5012143;28;20174;-88
2023/06/07 12:23:31;;;;;;;16.30;14.80;;;24.00;50.40;;;;;;5013530;28;20212;-88
2023/06/07 12:26:17;;;;;;;19.63;16.20;;;24.20;49.00;;;;;;5012975;28;20185;-88
2023/06/07 12:28:43;;;;;;;16.88;15.10;;;24.20;50.00;;;;;;5012152;28;20730;-88
2023/06/07 12:31:26;;;;;;;17.10;15.30;;;24.20;50.30;;;;;;5013600;28;20244;-88